sensor_id;sensor_type;location;lat;lon;timestamp;P1;durP1;ratioP1;P2;durP2;ratioP2
17947;SDS011;9099;47.958;11.366;2023-04-24T00:01:58;0.20;;;0.20;;
17947;SDS011;9099;47.958;11.366;2023-04-24T00:04:25;0.50;;;0.40;;
17947;SDS011;9099;47.958;11.366;2023-04-24T00:06:52;0.10;;;0.10;;
17947;SDS011;9099;47.958;11.366;2023-04-24T00:09:22;0.20;;;0.20;;
17947;SDS011;9099;47.958;11.366;2023-04-24T00:11:49;0.57;;;0.38;;
17947;SDS011;9099;47.958;11.366;2023-04-24T00:14:16;0.30;;;0.30;;
17947;SDS011;9099;47.958;11.366;2023-04-24T00:16:44;0.28;;;0.28;;
17947;SDS011;9099;47.958;11.366;2023-04-24T00:19:11;0.70;;;0.40;;
17947;SDS011;9099;47.958;11.366;2023-04-24T00:21:38;0.40;;;0.30;;
17947;SDS011;9099;47.958;11.366;2023-04-24T00:24:06;0.20;;;0.20;;
17947;SDS011;9099;47.958;11.366;2023-04-24T00:26:34;0.20;;;0.20;;
17947;SDS011;9099;47.958;11.366;2023-04-24T00:29:01;0.43;;;0.35;;
17947;SDS011;9099;47.958;11.366;2023-04-24T00:31:27;0.20;;;0.20;;
17947;SDS011;9099;47.958;11.366;2023-04-24T00:33:56;0.30;;;0.20;;
17947;SDS011;9099;47.958;11.366;2023-04-24T00:36:23;0.25;;;0.25;;
17947;SDS011;9099;47.958;11.366;2023-04-24T00:38:51;0.13;;;0.13;;
17947;SDS011;9099;47.958;11.366;2023-04-24T00:41:18;0.25;;;0.25;;
17947;SDS011;9099;47.958;11.366;2023-04-24T00:43:46;0.20;;;0.20;;
17947;SDS011;9099;47.958;11.366;2023-04-24T00:46:12;0.40;;;0.22;;
17947;SDS011;9099;47.958;11.366;2023-04-24T00:48:40;0.20;;;0.10;;
17947;SDS011;9099;47.958;11.366;2023-04-24T00:51:08;0.20;;;0.20;;
17947;SDS011;9099;47.958;11.366;2023-04-24T00:53:35;0.20;;;0.20;;
17947;SDS011;9099;47.958;11.366;2023-04-24T00:56:02;0.22;;;0.22;;
17947;SDS011;9099;47.958;11.366;2023-04-24T00:58:30;0.10;;;0.10;;
17947;SDS011;9099;47.958;11.366;2023-04-24T01:00:57;0.45;;;0.13;;
17947;SDS011;9099;47.958;11.366;2023-04-24T01:03:26;0.10;;;0.10;;
17947;SDS011;9099;47.958;11.366;2023-04-24T01:05:56;0.13;;;0.13;;
17947;SDS011;9099;47.958;11.366;2023-04-24T01:08:25;0.10;;;0.10;;
17947;SDS011;9099;47.958;11.366;2023-04-24T01:10:54;0.10;;;0.10;;
17947;SDS011;9099;47.958;11.366;2023-04-24T01:13:22;0.20;;;0.20;;
17947;SDS011;9099;47.958;11.366;2023-04-24T01:15:50;0.57;;;0.17;;
17947;SDS011;9099;47.958;11.366;2023-04-24T01:18:17;0.20;;;0.10;;
17947;SDS011;9099;47.958;11.366;2023-04-24T01:20:44;0.10;;;0.10;;
17947;SDS011;9099;47.958;11.366;2023-04-24T01:23:13;0.20;;;0.20;;
17947;SDS011;9099;47.958;11.366;2023-04-24T01:25:40;0.30;;;0.20;;
17947;SDS011;9099;47.958;11.366;2023-04-24T01:28:07;0.10;;;0.10;;
17947;SDS011;9099;47.958;11.366;2023-04-24T01:30:34;0.08;;;0.08;;
17947;SDS011;9099;47.958;11.366;2023-04-24T01:33:01;0.17;;;0.10;;
17947;SDS011;9099;47.958;11.366;2023-04-24T01:35:28;0.10;;;0.10;;
17947;SDS011;9099;47.958;11.366;2023-04-24T01:37:55;0.82;;;0.10;;
17947;SDS011;9099;47.958;11.366;2023-04-24T01:40:23;0.17;;;0.17;;
17947;SDS011;9099;47.958;11.366;2023-04-24T01:42:50;0.08;;;0.08;;
17947;SDS011;9099;47.958;11.366;2023-04-24T01:45:17;0.30;;;0.08;;
17947;SDS011;9099;47.958;11.366;2023-04-24T01:47:45;1.27;;;0.10;;
17947;SDS011;9099;47.958;11.366;2023-04-24T01:50:14;0.80;;;0.30;;
17947;SDS011;9099;47.958;11.366;2023-04-24T01:52:41;0.13;;;0.10;;
17947;SDS011;9099;47.958;11.366;2023-04-24T01:55:08;1.30;;;0.10;;
17947;SDS011;9099;47.958;11.366;2023-04-24T01:57:37;0.10;;;0.00;;
17947;SDS011;9099;47.958;11.366;2023-04-24T02:00:05;0.10;;;0.05;;
17947;SDS011;9099;47.958;11.366;2023-04-24T02:02:32;0.32;;;0.10;;
17947;SDS011;9099;47.958;11.366;2023-04-24T02:05:00;0.10;;;0.10;;
17947;SDS011;9099;47.958;11.366;2023-04-24T02:07:27;0.10;;;0.10;;
17947;SDS011;9099;47.958;11.366;2023-04-24T02:09:54;0.17;;;0.10;;
17947;SDS011;9099;47.958;11.366;2023-04-24T02:12:21;0.20;;;0.20;;
17947;SDS011;9099;47.958;11.366;2023-04-24T02:14:49;0.55;;;0.10;;
17947;SDS011;9099;47.958;11.366;2023-04-24T02:17:16;0.10;;;0.10;;
17947;SDS011;9099;47.958;11.366;2023-04-24T02:19:44;0.10;;;0.10;;
17947;SDS011;9099;47.958;11.366;2023-04-24T02:22:11;0.40;;;0.20;;
17947;SDS011;9099;47.958;11.366;2023-04-24T02:24:38;0.20;;;0.10;;
17947;SDS011;9099;47.958;11.366;2023-04-24T02:27:05;0.10;;;0.10;;
17947;SDS011;9099;47.958;11.366;2023-04-24T02:29:32;0.10;;;0.10;;
17947;SDS011;9099;47.958;11.366;2023-04-24T02:32:01;0.20;;;0.10;;
17947;SDS011;9099;47.958;11.366;2023-04-24T02:34:27;1.08;;;0.20;;
17947;SDS011;9099;47.958;11.366;2023-04-24T02:36:54;0.22;;;0.10;;
17947;SDS011;9099;47.958;11.366;2023-04-24T02:39:21;0.98;;;0.20;;
17947;SDS011;9099;47.958;11.366;2023-04-24T02:41:48;0.05;;;0.05;;
17947;SDS011;9099;47.958;11.366;2023-04-24T02:44:15;0.00;;;0.00;;
17947;SDS011;9099;47.958;11.366;2023-04-24T02:46:42;0.20;;;0.10;;
17947;SDS011;9099;47.958;11.366;2023-04-24T02:49:11;0.10;;;0.10;;
17947;SDS011;9099;47.958;11.366;2023-04-24T02:51:37;0.52;;;0.17;;
17947;SDS011;9099;47.958;11.366;2023-04-24T02:54:06;0.17;;;0.08;;
17947;SDS011;9099;47.958;11.366;2023-04-24T02:56:34;0.32;;;0.20;;
17947;SDS011;9099;47.958;11.366;2023-04-24T02:59:00;0.25;;;0.10;;
17947;SDS011;9099;47.958;11.366;2023-04-24T03:01:27;0.28;;;0.10;;
17947;SDS011;9099;47.958;11.366;2023-04-24T03:03:54;0.20;;;0.10;;
17947;SDS011;9099;47.958;11.366;2023-04-24T03:06:23;0.17;;;0.17;;
17947;SDS011;9099;47.958;11.366;2023-04-24T03:08:49;1.67;;;0.30;;
17947;SDS011;9099;47.958;11.366;2023-04-24T03:11:16;1.65;;;0.30;;
17947;SDS011;9099;47.958;11.366;2023-04-24T03:13:43;0.50;;;0.25;;
17947;SDS011;9099;47.958;11.366;2023-04-24T03:16:10;0.45;;;0.13;;
17947;SDS011;9099;47.958;11.366;2023-04-24T03:18:37;0.20;;;0.20;;
17947;SDS011;9099;47.958;11.366;2023-04-24T03:21:04;0.10;;;0.10;;
17947;SDS011;9099;47.958;11.366;2023-04-24T03:23:32;0.28;;;0.10;;
17947;SDS011;9099;47.958;11.366;2023-04-24T03:25:59;0.30;;;0.30;;
17947;SDS011;9099;47.958;11.366;2023-04-24T03:28:26;0.63;;;0.20;;
17947;SDS011;9099;47.958;11.366;2023-04-24T03:30:52;0.20;;;0.20;;
17947;SDS011;9099;47.958;11.366;2023-04-24T03:33:19;0.20;;;0.15;;
17947;SDS011;9099;47.958;11.366;2023-04-24T03:35:46;0.25;;;0.20;;
17947;SDS011;9099;47.958;11.366;2023-04-24T03:38:13;0.10;;;0.10;;
17947;SDS011;9099;47.958;11.366;2023-04-24T03:40:41;0.13;;;0.13;;
17947;SDS011;9099;47.958;11.366;2023-04-24T03:43:08;0.20;;;0.10;;
17947;SDS011;9099;47.958;11.366;2023-04-24T03:45:35;0.10;;;0.10;;
17947;SDS011;9099;47.958;11.366;2023-04-24T03:48:02;0.20;;;0.20;;
17947;SDS011;9099;47.958;11.366;2023-04-24T03:50:29;0.57;;;0.10;;
17947;SDS011;9099;47.958;11.366;2023-04-24T03:52:55;0.20;;;0.20;;
17947;SDS011;9099;47.958;11.366;2023-04-24T03:55:22;0.10;;;0.10;;
17947;SDS011;9099;47.958;11.366;2023-04-24T03:57:51;0.20;;;0.20;;
17947;SDS011;9099;47.958;11.366;2023-04-24T04:00:18;0.30;;;0.20;;
17947;SDS011;9099;47.958;11.366;2023-04-24T04:02:46;0.63;;;0.20;;
17947;SDS011;9099;47.958;11.366;2023-04-24T04:05:12;0.32;;;0.20;;
17947;SDS011;9099;47.958;11.366;2023-04-24T04:07:39;0.28;;;0.20;;
17947;SDS011;9099;47.958;11.366;2023-04-24T04:10:06;0.25;;;0.25;;
17947;SDS011;9099;47.958;11.366;2023-04-24T04:12:34;0.03;;;0.03;;
17947;SDS011;9099;47.958;11.366;2023-04-24T04:15:02;0.20;;;0.20;;
17947;SDS011;9099;47.958;11.366;2023-04-24T04:17:30;0.43;;;0.20;;
17947;SDS011;9099;47.958;11.366;2023-04-24T04:19:57;0.00;;;0.00;;
17947;SDS011;9099;47.958;11.366;2023-04-24T04:22:25;0.20;;;0.20;;
17947;SDS011;9099;47.958;11.366;2023-04-24T04:24:51;1.45;;;0.10;;
17947;SDS011;9099;47.958;11.366;2023-04-24T04:27:18;0.15;;;0.10;;
17947;SDS011;9099;47.958;11.366;2023-04-24T04:29:46;1.20;;;0.20;;
17947;SDS011;9099;47.958;11.366;2023-04-24T04:32:14;0.73;;;0.10;;
17947;SDS011;9099;47.958;11.366;2023-04-24T04:34:42;0.20;;;0.20;;
17947;SDS011;9099;47.958;11.366;2023-04-24T04:37:10;0.20;;;0.20;;
17947;SDS011;9099;47.958;11.366;2023-04-24T04:39:37;0.43;;;0.20;;
17947;SDS011;9099;47.958;11.366;2023-04-24T04:42:04;0.20;;;0.13;;
17947;SDS011;9099;47.958;11.366;2023-04-24T04:44:31;0.60;;;0.20;;
17947;SDS011;9099;47.958;11.366;2023-04-24T04:47:00;1.10;;;0.28;;
17947;SDS011;9099;47.958;11.366;2023-04-24T04:49:31;0.20;;;0.10;;
17947;SDS011;9099;47.958;11.366;2023-04-24T04:51:59;0.30;;;0.25;;
17947;SDS011;9099;47.958;11.366;2023-04-24T04:54:25;0.10;;;0.10;;
17947;SDS011;9099;47.958;11.366;2023-04-24T04:56:52;0.30;;;0.20;;
17947;SDS011;9099;47.958;11.366;2023-04-24T04:59:19;0.63;;;0.20;;
17947;SDS011;9099;47.958;11.366;2023-04-24T05:01:46;0.15;;;0.15;;
17947;SDS011;9099;47.958;11.366;2023-04-24T05:04:13;0.15;;;0.15;;
17947;SDS011;9099;47.958;11.366;2023-04-24T05:06:41;0.25;;;0.20;;
17947;SDS011;9099;47.958;11.366;2023-04-24T05:09:08;0.30;;;0.30;;
17947;SDS011;9099;47.958;11.366;2023-04-24T05:11:35;0.20;;;0.20;;
17947;SDS011;9099;47.958;11.366;2023-04-24T05:14:02;0.43;;;0.22;;
17947;SDS011;9099;47.958;11.366;2023-04-24T05:16:28;0.20;;;0.20;;
17947;SDS011;9099;47.958;11.366;2023-04-24T05:18:56;0.20;;;0.20;;
17947;SDS011;9099;47.958;11.366;2023-04-24T05:21:22;0.35;;;0.30;;
17947;SDS011;9099;47.958;11.366;2023-04-24T05:23:51;0.25;;;0.25;;
17947;SDS011;9099;47.958;11.366;2023-04-24T05:26:18;0.10;;;0.10;;
17947;SDS011;9099;47.958;11.366;2023-04-24T05:28:45;0.20;;;0.20;;
17947;SDS011;9099;47.958;11.366;2023-04-24T05:31:12;0.20;;;0.20;;
17947;SDS011;9099;47.958;11.366;2023-04-24T05:33:38;0.25;;;0.15;;
17947;SDS011;9099;47.958;11.366;2023-04-24T05:36:05;0.10;;;0.10;;
17947;SDS011;9099;47.958;11.366;2023-04-24T05:38:32;0.40;;;0.25;;
17947;SDS011;9099;47.958;11.366;2023-04-24T05:41:01;2.30;;;0.17;;
17947;SDS011;9099;47.958;11.366;2023-04-24T05:43:28;0.10;;;0.10;;
17947;SDS011;9099;47.958;11.366;2023-04-24T05:45:55;0.20;;;0.20;;
17947;SDS011;9099;47.958;11.366;2023-04-24T05:48:21;0.15;;;0.15;;
17947;SDS011;9099;47.958;11.366;2023-04-24T05:50:48;0.15;;;0.10;;
17947;SDS011;9099;47.958;11.366;2023-04-24T05:53:15;0.63;;;0.13;;
17947;SDS011;9099;47.958;11.366;2023-04-24T05:55:42;0.70;;;0.20;;
17947;SDS011;9099;47.958;11.366;2023-04-24T05:58:11;0.30;;;0.10;;
17947;SDS011;9099;47.958;11.366;2023-04-24T06:00:38;0.90;;;0.00;;
17947;SDS011;9099;47.958;11.366;2023-04-24T06:03:07;0.15;;;0.10;;
17947;SDS011;9099;47.958;11.366;2023-04-24T06:05:34;0.10;;;0.10;;
17947;SDS011;9099;47.958;11.366;2023-04-24T06:08:01;0.03;;;0.03;;
17947;SDS011;9099;47.958;11.366;2023-04-24T06:10:28;0.00;;;0.00;;
17947;SDS011;9099;47.958;11.366;2023-04-24T06:12:55;0.08;;;0.05;;
17947;SDS011;9099;47.958;11.366;2023-04-24T06:15:26;0.20;;;0.20;;
17947;SDS011;9099;47.958;11.366;2023-04-24T06:17:55;0.82;;;0.82;;
17947;SDS011;9099;47.958;11.366;2023-04-24T06:20:22;0.30;;;0.30;;
17947;SDS011;9099;47.958;11.366;2023-04-24T06:22:50;0.30;;;0.30;;
17947;SDS011;9099;47.958;11.366;2023-04-24T06:25:17;0.70;;;0.45;;
17947;SDS011;9099;47.958;11.366;2023-04-24T06:27:44;0.28;;;0.28;;
17947;SDS011;9099;47.958;11.366;2023-04-24T06:30:11;0.25;;;0.25;;
17947;SDS011;9099;47.958;11.366;2023-04-24T06:32:40;0.20;;;0.20;;
17947;SDS011;9099;47.958;11.366;2023-04-24T06:35:07;0.10;;;0.10;;
17947;SDS011;9099;47.958;11.366;2023-04-24T06:37:35;0.10;;;0.10;;
17947;SDS011;9099;47.958;11.366;2023-04-24T06:40:02;1.20;;;1.10;;
17947;SDS011;9099;47.958;11.366;2023-04-24T06:42:29;0.32;;;0.30;;
17947;SDS011;9099;47.958;11.366;2023-04-24T06:44:56;0.30;;;0.30;;
17947;SDS011;9099;47.958;11.366;2023-04-24T06:47:22;0.10;;;0.10;;
17947;SDS011;9099;47.958;11.366;2023-04-24T06:49:51;0.28;;;0.03;;
17947;SDS011;9099;47.958;11.366;2023-04-24T06:52:17;0.20;;;0.10;;
17947;SDS011;9099;47.958;11.366;2023-04-24T06:54:44;0.10;;;0.10;;
17947;SDS011;9099;47.958;11.366;2023-04-24T06:57:11;0.13;;;0.10;;
17947;SDS011;9099;47.958;11.366;2023-04-24T06:59:38;0.10;;;0.10;;
17947;SDS011;9099;47.958;11.366;2023-04-24T07:02:05;2.70;;;0.30;;
17947;SDS011;9099;47.958;11.366;2023-04-24T07:04:32;0.30;;;0.30;;
17947;SDS011;9099;47.958;11.366;2023-04-24T07:07:00;0.85;;;0.20;;
17947;SDS011;9099;47.958;11.366;2023-04-24T07:09:28;0.13;;;0.10;;
17947;SDS011;9099;47.958;11.366;2023-04-24T07:11:55;0.22;;;0.22;;
17947;SDS011;9099;47.958;11.366;2023-04-24T07:14:22;0.47;;;0.47;;
17947;SDS011;9099;47.958;11.366;2023-04-24T07:16:49;0.30;;;0.30;;
17947;SDS011;9099;47.958;11.366;2023-04-24T07:19:16;0.40;;;0.40;;
17947;SDS011;9099;47.958;11.366;2023-04-24T07:21:43;0.65;;;0.55;;
17947;SDS011;9099;47.958;11.366;2023-04-24T07:24:11;0.75;;;0.40;;
17947;SDS011;9099;47.958;11.366;2023-04-24T07:26:38;0.40;;;0.40;;
17947;SDS011;9099;47.958;11.366;2023-04-24T07:29:05;1.27;;;0.20;;
17947;SDS011;9099;47.958;11.366;2023-04-24T07:31:32;1.02;;;1.00;;
17947;SDS011;9099;47.958;11.366;2023-04-24T07:33:59;0.50;;;0.50;;
17947;SDS011;9099;47.958;11.366;2023-04-24T07:36:26;0.55;;;0.50;;
17947;SDS011;9099;47.958;11.366;2023-04-24T07:38:53;0.35;;;0.30;;
17947;SDS011;9099;47.958;11.366;2023-04-24T07:41:22;0.20;;;0.20;;
17947;SDS011;9099;47.958;11.366;2023-04-24T07:43:49;0.30;;;0.30;;
17947;SDS011;9099;47.958;11.366;2023-04-24T07:46:16;0.68;;;0.43;;
17947;SDS011;9099;47.958;11.366;2023-04-24T07:48:43;0.60;;;0.30;;
17947;SDS011;9099;47.958;11.366;2023-04-24T07:51:11;0.30;;;0.30;;
17947;SDS011;9099;47.958;11.366;2023-04-24T07:53:38;0.38;;;0.30;;
17947;SDS011;9099;47.958;11.366;2023-04-24T07:56:05;0.10;;;0.10;;
17947;SDS011;9099;47.958;11.366;2023-04-24T07:58:33;0.10;;;0.10;;
17947;SDS011;9099;47.958;11.366;2023-04-24T08:01:01;1.63;;;0.57;;
17947;SDS011;9099;47.958;11.366;2023-04-24T08:03:28;0.50;;;0.28;;
17947;SDS011;9099;47.958;11.366;2023-04-24T08:05:54;0.88;;;0.05;;
17947;SDS011;9099;47.958;11.366;2023-04-24T08:08:21;0.60;;;0.20;;
17947;SDS011;9099;47.958;11.366;2023-04-24T08:10:49;0.35;;;0.20;;
17947;SDS011;9099;47.958;11.366;2023-04-24T08:13:16;0.10;;;0.10;;
17947;SDS011;9099;47.958;11.366;2023-04-24T08:15:44;0.10;;;0.10;;
17947;SDS011;9099;47.958;11.366;2023-04-24T08:18:11;0.32;;;0.13;;
17947;SDS011;9099;47.958;11.366;2023-04-24T08:20:38;0.10;;;0.10;;
17947;SDS011;9099;47.958;11.366;2023-04-24T08:23:05;0.10;;;0.10;;
17947;SDS011;9099;47.958;11.366;2023-04-24T08:25:32;0.20;;;0.20;;
17947;SDS011;9099;47.958;11.366;2023-04-24T08:28:01;0.22;;;0.22;;
17947;SDS011;9099;47.958;11.366;2023-04-24T08:30:28;0.55;;;0.40;;
17947;SDS011;9099;47.958;11.366;2023-04-24T08:32:57;0.70;;;0.30;;
17947;SDS011;9099;47.958;11.366;2023-04-24T08:35:24;0.50;;;0.47;;
17947;SDS011;9099;47.958;11.366;2023-04-24T08:37:51;1.27;;;0.30;;
17947;SDS011;9099;47.958;11.366;2023-04-24T08:40:18;0.15;;;0.15;;
17947;SDS011;9099;47.958;11.366;2023-04-24T08:42:53;0.45;;;0.30;;
17947;SDS011;9099;47.958;11.366;2023-04-24T08:45:21;0.30;;;0.30;;
17947;SDS011;9099;47.958;11.366;2023-04-24T08:47:49;0.30;;;0.30;;
17947;SDS011;9099;47.958;11.366;2023-04-24T08:50:17;0.40;;;0.35;;
17947;SDS011;9099;47.958;11.366;2023-04-24T08:52:44;0.63;;;0.22;;
17947;SDS011;9099;47.958;11.366;2023-04-24T08:55:11;0.80;;;0.30;;
17947;SDS011;9099;47.958;11.366;2023-04-24T08:57:38;0.32;;;0.30;;
17947;SDS011;9099;47.958;11.366;2023-04-24T09:00:06;0.30;;;0.30;;
17947;SDS011;9099;47.958;11.366;2023-04-24T09:02:34;0.28;;;0.28;;
17947;SDS011;9099;47.958;11.366;2023-04-24T09:05:01;0.57;;;0.40;;
17947;SDS011;9099;47.958;11.366;2023-04-24T09:07:30;0.85;;;0.30;;
17947;SDS011;9099;47.958;11.366;2023-04-24T09:10:01;0.20;;;0.20;;
17947;SDS011;9099;47.958;11.366;2023-04-24T09:12:28;0.17;;;0.17;;
17947;SDS011;9099;47.958;11.366;2023-04-24T09:14:55;1.40;;;0.60;;
17947;SDS011;9099;47.958;11.366;2023-04-24T09:17:23;0.40;;;0.40;;
17947;SDS011;9099;47.958;11.366;2023-04-24T09:19:52;1.77;;;0.47;;
17947;SDS011;9099;47.958;11.366;2023-04-24T09:22:18;0.30;;;0.30;;
17947;SDS011;9099;47.958;11.366;2023-04-24T09:24:47;0.88;;;0.50;;
17947;SDS011;9099;47.958;11.366;2023-04-24T09:27:25;0.65;;;0.52;;
17947;SDS011;9099;47.958;11.366;2023-04-24T09:29:54;0.50;;;0.50;;
17947;SDS011;9099;47.958;11.366;2023-04-24T09:32:22;0.47;;;0.47;;
17947;SDS011;9099;47.958;11.366;2023-04-24T09:35:04;0.50;;;0.50;;
17947;SDS011;9099;47.958;11.366;2023-04-24T09:37:34;0.50;;;0.50;;
17947;SDS011;9099;47.958;11.366;2023-04-24T09:40:13;0.65;;;0.50;;
17947;SDS011;9099;47.958;11.366;2023-04-24T09:42:44;0.73;;;0.57;;
17947;SDS011;9099;47.958;11.366;2023-04-24T09:45:12;0.40;;;0.40;;
17947;SDS011;9099;47.958;11.366;2023-04-24T09:47:39;0.88;;;0.60;;
17947;SDS011;9099;47.958;11.366;2023-04-24T09:50:11;0.70;;;0.70;;
17947;SDS011;9099;47.958;11.366;2023-04-24T09:52:40;0.77;;;0.40;;
17947;SDS011;9099;47.958;11.366;2023-04-24T09:55:18;0.50;;;0.50;;
17947;SDS011;9099;47.958;11.366;2023-04-24T09:57:49;1.08;;;0.60;;
17947;SDS011;9099;47.958;11.366;2023-04-24T10:00:23;0.75;;;0.75;;
17947;SDS011;9099;47.958;11.366;2023-04-24T10:02:55;0.75;;;0.75;;
17947;SDS011;9099;47.958;11.366;2023-04-24T10:05:23;0.60;;;0.60;;
17947;SDS011;9099;47.958;11.366;2023-04-24T10:07:51;1.30;;;0.60;;
17947;SDS011;9099;47.958;11.366;2023-04-24T10:10:19;0.68;;;0.52;;
17947;SDS011;9099;47.958;11.366;2023-04-24T10:12:46;1.63;;;0.63;;
17947;SDS011;9099;47.958;11.366;2023-04-24T10:15:13;0.60;;;0.60;;
17947;SDS011;9099;47.958;11.366;2023-04-24T10:17:45;1.50;;;0.68;;
17947;SDS011;9099;47.958;11.366;2023-04-24T10:20:17;0.50;;;0.50;;
17947;SDS011;9099;47.958;11.366;2023-04-24T10:22:45;0.88;;;0.80;;
17947;SDS011;9099;47.958;11.366;2023-04-24T10:25:15;1.23;;;0.65;;
17947;SDS011;9099;47.958;11.366;2023-04-24T10:27:44;0.63;;;0.60;;
17947;SDS011;9099;47.958;11.366;2023-04-24T10:30:12;0.75;;;0.70;;
17947;SDS011;9099;47.958;11.366;2023-04-24T10:32:39;1.70;;;0.70;;
17947;SDS011;9099;47.958;11.366;2023-04-24T10:35:06;0.90;;;0.88;;
17947;SDS011;9099;47.958;11.366;2023-04-24T10:37:35;0.70;;;0.60;;
17947;SDS011;9099;47.958;11.366;2023-04-24T10:40:04;0.68;;;0.68;;
17947;SDS011;9099;47.958;11.366;2023-04-24T10:42:33;0.70;;;0.70;;
17947;SDS011;9099;47.958;11.366;2023-04-24T10:45:06;2.00;;;0.70;;
17947;SDS011;9099;47.958;11.366;2023-04-24T10:47:39;0.40;;;0.40;;
17947;SDS011;9099;47.958;11.366;2023-04-24T10:50:08;0.15;;;0.15;;
17947;SDS011;9099;47.958;11.366;2023-04-24T10:52:44;0.20;;;0.20;;
17947;SDS011;9099;47.958;11.366;2023-04-24T10:55:12;0.55;;;0.20;;
17947;SDS011;9099;47.958;11.366;2023-04-24T10:57:39;0.20;;;0.20;;
17947;SDS011;9099;47.958;11.366;2023-04-24T11:00:18;0.13;;;0.13;;
17947;SDS011;9099;47.958;11.366;2023-04-24T11:02:47;0.82;;;0.30;;
17947;SDS011;9099;47.958;11.366;2023-04-24T11:05:15;0.35;;;0.35;;
17947;SDS011;9099;47.958;11.366;2023-04-24T11:10:39;0.43;;;0.43;;
17947;SDS011;9099;47.958;11.366;2023-04-24T11:13:07;0.40;;;0.40;;
17947;SDS011;9099;47.958;11.366;2023-04-24T11:15:35;0.85;;;0.50;;
17947;SDS011;9099;47.958;11.366;2023-04-24T11:18:02;0.82;;;0.50;;
17947;SDS011;9099;47.958;11.366;2023-04-24T11:20:29;0.50;;;0.50;;
17947;SDS011;9099;47.958;11.366;2023-04-24T11:22:57;1.08;;;0.65;;
17947;SDS011;9099;47.958;11.366;2023-04-24T11:25:31;0.50;;;0.50;;
17947;SDS011;9099;47.958;11.366;2023-04-24T11:28:07;0.82;;;0.55;;
17947;SDS011;9099;47.958;11.366;2023-04-24T11:30:42;0.60;;;0.50;;
17947;SDS011;9099;47.958;11.366;2023-04-24T11:33:09;0.60;;;0.50;;
17947;SDS011;9099;47.958;11.366;2023-04-24T11:35:36;1.98;;;0.60;;
17947;SDS011;9099;47.958;11.366;2023-04-24T11:38:06;0.52;;;0.52;;
17947;SDS011;9099;47.958;11.366;2023-04-24T11:40:33;1.23;;;0.65;;
17947;SDS011;9099;47.958;11.366;2023-04-24T11:43:00;1.35;;;0.60;;
17947;SDS011;9099;47.958;11.366;2023-04-24T11:45:29;1.60;;;0.60;;
17947;SDS011;9099;47.958;11.366;2023-04-24T11:47:58;0.63;;;0.52;;
17947;SDS011;9099;47.958;11.366;2023-04-24T11:50:25;3.35;;;0.90;;
17947;SDS011;9099;47.958;11.366;2023-04-24T11:52:53;1.75;;;0.75;;
17947;SDS011;9099;47.958;11.366;2023-04-24T11:55:24;0.50;;;0.50;;
17947;SDS011;9099;47.958;11.366;2023-04-24T11:57:53;3.20;;;0.93;;
17947;SDS011;9099;47.958;11.366;2023-04-24T12:00:23;2.40;;;0.93;;
17947;SDS011;9099;47.958;11.366;2023-04-24T12:02:51;0.95;;;0.88;;
17947;SDS011;9099;47.958;11.366;2023-04-24T12:05:30;1.13;;;0.50;;
17947;SDS011;9099;47.958;11.366;2023-04-24T12:07:57;0.70;;;0.70;;
17947;SDS011;9099;47.958;11.366;2023-04-24T12:10:24;0.85;;;0.80;;
17947;SDS011;9099;47.958;11.366;2023-04-24T12:12:52;0.90;;;0.77;;
17947;SDS011;9099;47.958;11.366;2023-04-24T12:15:19;0.80;;;0.80;;
17947;SDS011;9099;47.958;11.366;2023-04-24T12:17:47;0.80;;;0.80;;
17947;SDS011;9099;47.958;11.366;2023-04-24T12:20:17;0.95;;;0.77;;
17947;SDS011;9099;47.958;11.366;2023-04-24T12:22:53;2.15;;;1.00;;
17947;SDS011;9099;47.958;11.366;2023-04-24T12:25:21;0.65;;;0.65;;
17947;SDS011;9099;47.958;11.366;2023-04-24T12:27:52;3.10;;;0.73;;
17947;SDS011;9099;47.958;11.366;2023-04-24T12:30:20;1.42;;;0.73;;
17947;SDS011;9099;47.958;11.366;2023-04-24T12:32:52;0.52;;;0.52;;
17947;SDS011;9099;47.958;11.366;2023-04-24T12:35:20;1.48;;;0.95;;
17947;SDS011;9099;47.958;11.366;2023-04-24T12:37:48;0.75;;;0.70;;
17947;SDS011;9099;47.958;11.366;2023-04-24T12:40:17;1.98;;;0.90;;
17947;SDS011;9099;47.958;11.366;2023-04-24T12:42:46;1.08;;;0.85;;
17947;SDS011;9099;47.958;11.366;2023-04-24T12:45:14;0.60;;;0.60;;
17947;SDS011;9099;47.958;11.366;2023-04-24T12:47:42;0.88;;;0.77;;
17947;SDS011;9099;47.958;11.366;2023-04-24T12:50:10;1.00;;;0.90;;
17947;SDS011;9099;47.958;11.366;2023-04-24T12:52:38;0.68;;;0.68;;
17947;SDS011;9099;47.958;11.366;2023-04-24T12:55:07;1.10;;;0.90;;
17947;SDS011;9099;47.958;11.366;2023-04-24T12:57:35;1.02;;;0.75;;
17947;SDS011;9099;47.958;11.366;2023-04-24T13:00:04;0.65;;;0.65;;
17947;SDS011;9099;47.958;11.366;2023-04-24T13:02:32;0.73;;;0.55;;
17947;SDS011;9099;47.958;11.366;2023-04-24T13:05:00;0.60;;;0.60;;
17947;SDS011;9099;47.958;11.366;2023-04-24T13:07:27;0.82;;;0.82;;
17947;SDS011;9099;47.958;11.366;2023-04-24T13:09:54;0.95;;;0.70;;
17947;SDS011;9099;47.958;11.366;2023-04-24T13:12:23;0.77;;;0.73;;
17947;SDS011;9099;47.958;11.366;2023-04-24T13:14:50;1.08;;;0.77;;
17947;SDS011;9099;47.958;11.366;2023-04-24T13:17:17;0.80;;;0.77;;
17947;SDS011;9099;47.958;11.366;2023-04-24T13:19:44;0.93;;;0.70;;
17947;SDS011;9099;47.958;11.366;2023-04-24T13:22:12;0.70;;;0.70;;
17947;SDS011;9099;47.958;11.366;2023-04-24T13:24:39;0.77;;;0.60;;
17947;SDS011;9099;47.958;11.366;2023-04-24T13:27:07;0.88;;;0.80;;
17947;SDS011;9099;47.958;11.366;2023-04-24T13:29:36;1.75;;;0.90;;
17947;SDS011;9099;47.958;11.366;2023-04-24T13:32:03;1.52;;;1.20;;
17947;SDS011;9099;47.958;11.366;2023-04-24T13:34:30;1.08;;;1.02;;
17947;SDS011;9099;47.958;11.366;2023-04-24T13:36:57;1.25;;;0.93;;
17947;SDS011;9099;47.958;11.366;2023-04-24T13:39:25;1.10;;;1.02;;
17947;SDS011;9099;47.958;11.366;2023-04-24T13:41:52;0.98;;;0.80;;
17947;SDS011;9099;47.958;11.366;2023-04-24T13:44:21;1.13;;;1.08;;
17947;SDS011;9099;47.958;11.366;2023-04-24T13:46:51;1.05;;;0.90;;
17947;SDS011;9099;47.958;11.366;2023-04-24T13:49:21;1.25;;;1.10;;
17947;SDS011;9099;47.958;11.366;2023-04-24T13:51:49;1.20;;;1.10;;
17947;SDS011;9099;47.958;11.366;2023-04-24T13:54:17;2.25;;;1.27;;
17947;SDS011;9099;47.958;11.366;2023-04-24T13:56:44;1.02;;;1.02;;
17947;SDS011;9099;47.958;11.366;2023-04-24T13:59:11;1.45;;;1.05;;
17947;SDS011;9099;47.958;11.366;2023-04-24T14:01:38;2.13;;;1.10;;
17947;SDS011;9099;47.958;11.366;2023-04-24T14:04:07;2.05;;;1.10;;
17947;SDS011;9099;47.958;11.366;2023-04-24T14:06:34;1.02;;;0.90;;
17947;SDS011;9099;47.958;11.366;2023-04-24T14:09:00;1.38;;;1.00;;
17947;SDS011;9099;47.958;11.366;2023-04-24T14:11:27;1.00;;;0.70;;
17947;SDS011;9099;47.958;11.366;2023-04-24T14:13:55;1.88;;;0.93;;
17947;SDS011;9099;47.958;11.366;2023-04-24T14:16:22;0.80;;;0.80;;
17947;SDS011;9099;47.958;11.366;2023-04-24T14:18:49;1.10;;;1.00;;
17947;SDS011;9099;47.958;11.366;2023-04-24T14:21:17;1.13;;;1.02;;
17947;SDS011;9099;47.958;11.366;2023-04-24T14:23:44;0.68;;;0.63;;
17947;SDS011;9099;47.958;11.366;2023-04-24T14:26:11;1.83;;;1.00;;
17947;SDS011;9099;47.958;11.366;2023-04-24T14:28:38;0.80;;;0.80;;
17947;SDS011;9099;47.958;11.366;2023-04-24T14:31:05;0.90;;;0.80;;
17947;SDS011;9099;47.958;11.366;2023-04-24T14:33:33;1.10;;;1.00;;
17947;SDS011;9099;47.958;11.366;2023-04-24T14:36:00;0.73;;;0.73;;
17947;SDS011;9099;47.958;11.366;2023-04-24T14:38:29;0.82;;;0.82;;
17947;SDS011;9099;47.958;11.366;2023-04-24T14:40:56;1.80;;;1.00;;
17947;SDS011;9099;47.958;11.366;2023-04-24T14:43:23;0.90;;;0.77;;
17947;SDS011;9099;47.958;11.366;2023-04-24T14:45:50;1.00;;;0.90;;
17947;SDS011;9099;47.958;11.366;2023-04-24T14:48:17;0.65;;;0.65;;
17947;SDS011;9099;47.958;11.366;2023-04-24T14:50:44;1.10;;;0.95;;
17947;SDS011;9099;47.958;11.366;2023-04-24T14:53:11;0.93;;;0.90;;
17947;SDS011;9099;47.958;11.366;2023-04-24T14:55:39;2.20;;;0.90;;